createdAt,value
2022-08-05T00:01:28.530Z,23.40
2022-08-05T00:03:57.128Z,23.50
2022-08-05T00:06:32.228Z,23.50
2022-08-05T00:09:00.588Z,23.30
2022-08-05T00:11:30.301Z,23.30
2022-08-05T00:14:01.201Z,23.20
2022-08-05T00:16:35.279Z,22.90
2022-08-05T00:19:03.726Z,22.90
2022-08-05T00:21:30.558Z,23.00
2022-08-05T00:24:10.139Z,23.00
2022-08-05T00:26:38.343Z,22.90
2022-08-05T00:29:04.992Z,22.90
2022-08-05T00:31:54.131Z,22.80
2022-08-05T00:34:54.216Z,22.80
2022-08-05T00:37:11.792Z,22.60
2022-08-05T00:39:57.259Z,22.70
2022-08-05T00:42:36.715Z,22.50
2022-08-05T00:45:04.986Z,22.70
2022-08-05T00:47:56.367Z,22.70
2022-08-05T00:50:21.994Z,22.50
2022-08-05T00:52:53.372Z,22.50
2022-08-05T00:55:22.010Z,22.60
2022-08-05T00:57:57.879Z,22.70
2022-08-05T01:00:26.745Z,22.50
2022-08-05T01:02:53.508Z,22.20
2022-08-05T01:05:20.135Z,22.30
2022-08-05T01:08:40.333Z,22.20
2022-08-05T01:10:54.016Z,22.40
2022-08-05T01:13:27.126Z,22.30
2022-08-05T01:15:56.903Z,22.30
2022-08-05T01:18:26.071Z,22.30
2022-08-05T01:20:54.094Z,22.30
2022-08-05T01:23:23.677Z,22.10
2022-08-05T01:25:58.351Z,22.10
2022-08-05T01:28:33.084Z,22.10
2022-08-05T01:31:11.543Z,22.00
2022-08-05T01:33:42.091Z,22.00
2022-08-05T01:36:16.876Z,22.10
2022-08-05T01:38:49.933Z,21.90
2022-08-05T01:41:18.458Z,21.80
2022-08-05T01:43:49.401Z,21.80
2022-08-05T01:46:42.669Z,21.90
2022-08-05T01:49:23.267Z,21.60
2022-08-05T01:51:51.865Z,21.70
2022-08-05T01:54:19.801Z,21.80
2022-08-05T01:58:13.083Z,21.80
2022-08-05T01:59:39.920Z,21.70
2022-08-05T02:02:07.509Z,21.60
2022-08-05T02:04:40.610Z,21.70
2022-08-05T02:07:07.450Z,21.50
2022-08-05T02:09:36.575Z,21.50
2022-08-05T02:12:04.299Z,21.50
2022-08-05T02:14:33.215Z,21.40
2022-08-05T02:17:16.856Z,21.40
2022-08-05T02:20:00.535Z,21.50
2022-08-05T02:22:31.672Z,21.20
2022-08-05T02:25:02.107Z,21.30
2022-08-05T02:27:58.082Z,21.40
2022-08-05T02:30:17.794Z,21.30
2022-08-05T02:32:47.978Z,21.20
2022-08-05T02:35:19.030Z,21.20
2022-08-05T02:37:54.126Z,21.20
2022-08-05T02:40:21.350Z,21.10
2022-08-05T02:42:52.861Z,21.00
2022-08-05T02:45:21.368Z,21.10
2022-08-05T02:48:11.628Z,21.20
2022-08-05T02:50:43.615Z,21.20
2022-08-05T02:53:15.986Z,21.10
2022-08-05T02:55:54.009Z,21.20
2022-08-05T02:58:23.023Z,21.20
2022-08-05T03:00:55.902Z,21.10
2022-08-05T03:03:23.570Z,21.30
2022-08-05T03:06:55.156Z,21.30
2022-08-05T03:08:38.301Z,21.40
2022-08-05T03:11:55.692Z,21.60
2022-08-05T03:14:07.956Z,21.50
2022-08-05T03:16:35.842Z,21.30
2022-08-05T03:19:03.463Z,21.30
2022-08-05T03:21:49.380Z,21.30
2022-08-05T03:24:17.458Z,21.30
2022-08-05T03:26:45.664Z,21.40
2022-08-05T03:29:18.092Z,21.50
2022-08-05T03:31:56.888Z,21.40
2022-08-05T03:34:27.894Z,21.40
2022-08-05T03:36:55.464Z,21.40
2022-08-05T03:39:26.748Z,21.30
2022-08-05T03:41:56.116Z,21.50
2022-08-05T03:44:23.495Z,21.40
2022-08-05T03:46:50.172Z,21.60
2022-08-05T03:49:16.782Z,21.60
2022-08-05T03:52:38.330Z,21.60
2022-08-05T03:55:49.775Z,21.70
2022-08-05T03:57:41.897Z,21.70
2022-08-05T04:00:16.501Z,21.60
2022-08-05T04:02:52.235Z,21.70
2022-08-05T04:05:28.019Z,21.60
2022-08-05T04:08:05.650Z,21.80
2022-08-05T04:10:42.193Z,21.70
2022-08-05T04:13:08.900Z,21.80
2022-08-05T04:15:36.419Z,21.80
2022-08-05T04:18:06.768Z,21.80
2022-08-05T04:20:34.501Z,21.80
2022-08-05T04:23:01.592Z,21.90
2022-08-05T04:25:58.047Z,21.90
2022-08-05T04:28:15.086Z,22.00
2022-08-05T04:30:44.181Z,22.10
2022-08-05T04:33:10.811Z,22.10
2022-08-05T04:36:09.525Z,22.30
2022-08-05T04:38:39.960Z,22.60
2022-08-05T04:41:09.599Z,22.80
2022-08-05T04:43:37.320Z,23.00
2022-08-05T04:46:05.027Z,23.10
2022-08-05T04:48:31.947Z,23.10
2022-08-05T04:51:02.735Z,23.20
2022-08-05T04:53:36.625Z,23.30
2022-08-05T04:56:32.642Z,23.30
2022-08-05T04:58:56.461Z,23.50
2022-08-05T05:02:08.117Z,23.60
2022-08-05T05:04:10.077Z,23.50
2022-08-05T05:06:40.614Z,23.60
2022-08-05T05:09:14.062Z,23.70
2022-08-05T05:11:54.652Z,23.70
2022-08-05T05:14:28.190Z,23.80
2022-08-05T05:17:02.090Z,23.80
2022-08-05T05:19:37.249Z,23.90
2022-08-05T05:22:23.653Z,24.00
2022-08-05T05:24:58.005Z,24.00
2022-08-05T05:27:41.600Z,24.10
2022-08-05T05:30:15.357Z,24.20
2022-08-05T05:32:56.095Z,24.30
2022-08-05T05:35:23.154Z,24.30
2022-08-05T05:37:59.744Z,24.20
2022-08-05T05:40:28.545Z,24.30
2022-08-05T05:42:55.285Z,24.50
2022-08-05T05:45:24.776Z,24.50
2022-08-05T05:48:06.179Z,24.50
2022-08-05T05:50:41.228Z,24.50
2022-08-05T05:53:20.855Z,24.60
2022-08-05T05:55:52.236Z,24.70
2022-08-05T05:58:31.568Z,24.70
2022-08-05T06:01:12.956Z,24.70
2022-08-05T06:04:00.949Z,24.80
2022-08-05T06:06:33.008Z,24.80
2022-08-05T06:09:03.827Z,24.90
2022-08-05T06:11:31.167Z,24.90
2022-08-05T06:13:57.972Z,24.90
2022-08-05T06:16:36.615Z,25.00
2022-08-05T06:19:05.965Z,25.00
2022-08-05T06:21:35.986Z,25.20
2022-08-05T06:24:07.741Z,25.10
2022-08-05T06:26:39.832Z,25.20
2022-08-05T06:29:42.878Z,25.20
2022-08-05T06:32:05.624Z,25.40
2022-08-05T06:34:48.321Z,25.30
2022-08-05T06:37:57.650Z,25.30
2022-08-05T06:40:07.267Z,25.40
2022-08-05T06:42:33.956Z,25.50
2022-08-05T06:45:00.584Z,25.50
2022-08-05T06:48:36.460Z,25.60
2022-08-05T06:50:19.079Z,25.60
2022-08-05T06:52:58.821Z,25.60
2022-08-05T06:55:36.610Z,25.70
2022-08-05T06:58:19.708Z,25.70
2022-08-05T07:00:50.401Z,25.70
2022-08-05T07:03:17.347Z,25.80
2022-08-05T07:05:44.120Z,25.80
2022-08-05T07:08:13.272Z,25.90
2022-08-05T07:10:52.856Z,26.00
2022-08-05T07:13:59.308Z,26.00
2022-08-05T07:17:59.468Z,26.00
2022-08-05T07:20:16.876Z,26.10
2022-08-05T07:22:22.063Z,26.20
2022-08-05T07:24:56.454Z,26.20
2022-08-05T07:27:23.337Z,26.20
2022-08-05T07:30:23.888Z,26.30
2022-08-05T07:32:43.700Z,26.30
2022-08-05T07:36:01.558Z,26.40
2022-08-05T07:37:58.109Z,26.40
2022-08-05T07:40:32.545Z,26.60
2022-08-05T07:42:59.788Z,26.50
2022-08-05T07:45:56.564Z,26.50
2022-08-05T07:49:02.943Z,26.50
2022-08-05T07:51:05.607Z,26.60
2022-08-05T07:53:51.648Z,26.60
2022-08-05T07:57:00.612Z,26.70
2022-08-05T07:59:08.426Z,26.70
2022-08-05T08:01:35.471Z,26.70
2022-08-05T08:04:34.352Z,26.80
2022-08-05T08:07:05.519Z,26.90
2022-08-05T08:09:34.357Z,26.80
2022-08-05T08:12:09.307Z,26.90
2022-08-05T08:14:38.060Z,26.90
2022-08-05T08:17:10.686Z,26.90
2022-08-05T08:20:20.973Z,27.00
2022-08-05T08:22:29.989Z,27.10
2022-08-05T08:25:03.082Z,27.10
2022-08-05T08:27:35.891Z,27.00
2022-08-05T08:30:29.612Z,27.10
2022-08-05T08:32:58.572Z,27.20
2022-08-05T08:35:34.786Z,27.20
2022-08-05T08:38:07.486Z,27.20
2022-08-05T08:40:35.203Z,27.30
2022-08-05T08:44:55.737Z,27.20
2022-08-05T08:45:52.868Z,27.30
2022-08-05T08:48:41.693Z,27.30
2022-08-05T08:51:22.572Z,27.40
2022-08-05T08:53:54.000Z,27.30
2022-08-05T08:56:22.143Z,27.40
2022-08-05T08:58:49.637Z,27.40
2022-08-05T09:01:18.639Z,27.50
2022-08-05T09:03:47.498Z,27.50
2022-08-05T09:06:18.671Z,27.50
2022-08-05T09:08:47.961Z,27.60
2022-08-05T09:11:15.114Z,27.60
2022-08-05T09:14:01.114Z,27.50
2022-08-05T09:16:29.599Z,27.70
2022-08-05T09:18:56.314Z,27.70
2022-08-05T09:22:23.427Z,27.70
2022-08-05T09:24:15.661Z,27.80
2022-08-05T09:26:46.211Z,27.80
2022-08-05T09:29:16.250Z,27.90
2022-08-05T09:32:39.968Z,27.90
2022-08-05T09:34:47.837Z,27.90
2022-08-05T09:38:17.089Z,27.90
2022-08-05T09:40:28.570Z,27.90
2022-08-05T09:42:55.263Z,28.00
2022-08-05T09:46:07.915Z,28.00
2022-08-05T09:48:28.434Z,28.00
2022-08-05T09:50:58.085Z,28.00
2022-08-05T09:53:53.215Z,28.10
2022-08-05T09:56:12.898Z,28.10
2022-08-05T09:58:41.727Z,28.10
2022-08-05T10:01:13.330Z,28.20
2022-08-05T10:03:58.557Z,28.10
2022-08-05T10:06:27.542Z,28.20
2022-08-05T10:08:55.581Z,28.20
2022-08-05T10:11:22.837Z,28.20
2022-08-05T10:13:49.709Z,28.20
2022-08-05T10:16:33.961Z,28.20
2022-08-05T10:19:01.312Z,28.20
2022-08-05T10:21:40.292Z,28.20
2022-08-05T10:24:13.516Z,28.30
2022-08-05T10:26:51.186Z,28.30
2022-08-05T10:30:41.403Z,28.30
2022-08-05T10:32:59.746Z,28.20
2022-08-05T10:35:01.093Z,28.40
2022-08-05T10:37:44.364Z,28.40
2022-08-05T10:40:45.080Z,28.30
2022-08-05T10:43:14.303Z,28.40
2022-08-05T10:45:42.372Z,28.40
2022-08-05T10:48:31.079Z,28.40
2022-08-05T10:51:03.373Z,28.40
2022-08-05T10:53:38.753Z,28.40
2022-08-05T10:56:21.311Z,28.50
2022-08-05T10:58:58.452Z,28.60
2022-08-05T11:01:54.487Z,28.50
2022-08-05T11:04:23.208Z,28.60
2022-08-05T11:07:04.560Z,28.50
2022-08-05T11:09:45.376Z,28.60
2022-08-05T11:12:32.276Z,28.60
2022-08-05T11:15:20.532Z,28.60
2022-08-05T11:17:58.705Z,28.70
2022-08-05T11:20:43.666Z,28.60
2022-08-05T11:23:33.372Z,28.60
2022-08-05T11:26:10.914Z,28.70
2022-08-05T11:28:38.235Z,28.70
2022-08-05T11:31:07.819Z,28.70
2022-08-05T11:33:46.541Z,28.80
2022-08-05T11:36:42.688Z,28.80
2022-08-05T11:39:10.291Z,28.90
2022-08-05T11:42:01.358Z,28.90
2022-08-05T11:44:40.473Z,28.90
2022-08-05T11:47:22.101Z,29.00
2022-08-05T11:49:55.173Z,29.10
2022-08-05T11:52:23.351Z,29.20
2022-08-05T11:55:07.721Z,29.20
2022-08-05T11:58:08.186Z,29.30
2022-08-05T12:00:30.663Z,29.30
2022-08-05T12:02:57.514Z,29.50
2022-08-05T12:05:36.542Z,29.50
2022-08-05T12:08:10.715Z,29.60
2022-08-05T12:10:45.612Z,29.80
2022-08-05T12:13:47.509Z,29.90
2022-08-05T12:16:14.999Z,30.00
2022-08-05T12:18:49.593Z,30.10
2022-08-05T12:21:21.259Z,30.20
2022-08-05T12:23:53.189Z,30.30
2022-08-05T12:26:19.955Z,30.30
2022-08-05T12:28:46.614Z,30.50
2022-08-05T12:31:32.573Z,30.60
2022-08-05T12:34:04.275Z,30.70
2022-08-05T12:36:31.235Z,30.90
2022-08-05T12:38:58.437Z,31.20
2022-08-05T12:41:34.323Z,31.10
2022-08-05T12:44:06.135Z,31.30
2022-08-05T12:46:39.556Z,31.60
2022-08-05T12:49:13.102Z,31.70
2022-08-05T12:52:13.825Z,31.90
2022-08-05T12:54:49.633Z,32.00
2022-08-05T12:57:16.761Z,32.20
2022-08-05T13:01:57.890Z,32.30
2022-08-05T13:02:36.032Z,32.60
2022-08-05T13:05:05.919Z,32.80
2022-08-05T13:07:57.817Z,32.90
2022-08-05T13:10:19.997Z,33.10
2022-08-05T13:12:57.114Z,33.30
2022-08-05T13:15:41.325Z,33.50
2022-08-05T13:18:08.935Z,33.80
2022-08-05T13:20:40.399Z,34.80
2022-08-05T13:23:07.580Z,38.30
2022-08-05T13:25:52.837Z,41.70
2022-08-05T13:28:22.294Z,43.40
2022-08-05T13:30:48.960Z,44.90
2022-08-05T13:34:22.109Z,46.00
2022-08-05T13:36:06.583Z,46.80
2022-08-05T13:38:42.164Z,47.10
2022-08-05T13:41:10.619Z,45.80
2022-08-05T13:43:44.988Z,42.80
2022-08-05T13:46:50.544Z,40.80
2022-08-05T13:49:10.093Z,39.90
2022-08-05T13:51:40.900Z,39.80
2022-08-05T13:54:12.397Z,43.40
2022-08-05T13:56:40.053Z,46.10
2022-08-05T13:59:20.492Z,44.20
2022-08-05T14:01:58.166Z,41.90
2022-08-05T14:04:51.326Z,40.60
2022-08-05T14:07:55.668Z,40.40
2022-08-05T14:10:11.905Z,42.10
2022-08-05T14:12:39.282Z,45.50
2022-08-05T14:16:07.118Z,48.30
2022-08-05T14:17:55.083Z,49.30
2022-08-05T14:20:27.424Z,49.70
2022-08-05T14:22:54.353Z,50.40
2022-08-05T14:25:22.510Z,50.70
2022-08-05T14:27:54.436Z,51.30
2022-08-05T14:30:21.448Z,51.90
2022-08-05T14:32:48.843Z,51.80
2022-08-05T14:35:16.261Z,52.30
2022-08-05T14:37:51.009Z,52.60
2022-08-05T14:40:20.286Z,52.70
2022-08-05T14:42:51.356Z,52.50
2022-08-05T14:45:18.472Z,52.00
2022-08-05T14:48:03.162Z,52.50
2022-08-05T14:50:31.956Z,52.90
2022-08-05T14:52:59.585Z,53.20
2022-08-05T14:55:28.738Z,53.20
2022-08-05T14:58:11.112Z,52.90
2022-08-05T15:00:55.023Z,53.10
2022-08-05T15:03:33.728Z,53.10
2022-08-05T15:06:07.818Z,52.90
2022-08-05T15:08:58.263Z,53.30
2022-08-05T15:11:51.697Z,53.90
2022-08-05T15:14:34.222Z,54.00
2022-08-05T15:17:01.983Z,53.30
2022-08-05T15:19:30.890Z,52.60
2022-08-05T15:21:59.962Z,52.70
2022-08-05T15:24:27.514Z,52.90
2022-08-05T15:26:55.993Z,53.10
2022-08-05T15:29:23.626Z,53.20
2022-08-05T15:31:56.633Z,53.30
2022-08-05T15:34:32.784Z,52.80
2022-08-05T15:37:04.855Z,52.20
2022-08-05T15:41:04.793Z,51.90
2022-08-05T15:42:28.714Z,51.80
2022-08-05T15:45:07.469Z,52.20
2022-08-05T15:47:37.111Z,52.90
2022-08-05T15:50:06.479Z,53.20
2022-08-05T15:52:53.163Z,52.70
2022-08-05T15:55:24.613Z,52.40
2022-08-05T15:57:52.101Z,51.20
2022-08-05T16:00:26.213Z,51.70
2022-08-05T16:03:05.583Z,52.00
2022-08-05T16:05:32.353Z,51.50
2022-08-05T16:07:59.025Z,48.60
2022-08-05T16:10:29.083Z,46.40
2022-08-05T16:12:56.322Z,45.00
2022-08-05T16:15:23.628Z,42.30
2022-08-05T16:17:57.412Z,39.90
2022-08-05T16:20:25.353Z,39.60
2022-08-05T16:22:52.153Z,41.40
2022-08-05T16:25:18.793Z,41.70
2022-08-05T16:27:59.704Z,39.50
2022-08-05T16:30:28.905Z,38.10
2022-08-05T16:32:55.940Z,37.10
2022-08-05T16:35:27.711Z,36.40
2022-08-05T16:38:16.346Z,36.00
2022-08-05T16:40:42.287Z,35.60
2022-08-05T16:43:19.000Z,35.10
2022-08-05T16:46:07.878Z,34.90
2022-08-05T16:48:33.591Z,34.60
2022-08-05T16:51:01.880Z,34.40
2022-08-05T16:53:32.189Z,34.20
2022-08-05T16:55:59.645Z,33.90
2022-08-05T16:58:26.390Z,33.60
2022-08-05T17:00:53.107Z,33.60
2022-08-05T17:03:21.069Z,33.30
2022-08-05T17:05:53.755Z,33.30
2022-08-05T17:08:36.348Z,33.40
2022-08-05T17:11:09.045Z,33.40
2022-08-05T17:13:43.445Z,33.30
2022-08-05T17:16:30.176Z,33.40
2022-08-05T17:18:57.285Z,33.60
2022-08-05T17:21:23.997Z,33.60
2022-08-05T17:24:05.653Z,33.60
2022-08-05T17:26:38.343Z,33.50
2022-08-05T17:29:07.560Z,33.30
2022-08-05T17:31:41.429Z,33.00
2022-08-05T17:34:30.145Z,33.10
2022-08-05T17:37:00.029Z,33.20
2022-08-05T17:39:34.162Z,33.00
2022-08-05T17:42:28.553Z,32.70
2022-08-05T17:44:51.672Z,32.50
2022-08-05T17:47:23.126Z,32.20
2022-08-05T17:49:59.501Z,32.00
2022-08-05T17:52:33.553Z,31.80
2022-08-05T17:55:00.581Z,31.70
2022-08-05T17:57:27.648Z,31.50
2022-08-05T18:00:03.506Z,31.40
2022-08-05T18:02:31.878Z,31.30
2022-08-05T18:04:58.976Z,31.20
2022-08-05T18:07:32.986Z,31.00
2022-08-05T18:10:10.015Z,30.80
2022-08-05T18:12:36.871Z,30.60
2022-08-05T18:15:04.841Z,30.50
2022-08-05T18:17:59.767Z,30.40
2022-08-05T18:20:19.651Z,30.20
2022-08-05T18:22:57.579Z,30.10
2022-08-05T18:25:25.200Z,29.90
2022-08-05T18:27:59.537Z,29.80
2022-08-05T18:30:29.186Z,29.70
2022-08-05T18:33:00.812Z,29.60
2022-08-05T18:36:00.639Z,29.50
2022-08-05T18:38:18.928Z,29.50
2022-08-05T18:41:58.149Z,29.30
2022-08-05T18:43:38.361Z,29.20
2022-08-05T18:46:09.971Z,29.10
2022-08-05T18:48:36.800Z,28.90
2022-08-05T18:52:02.683Z,28.90
2022-08-05T18:54:14.285Z,28.90
2022-08-05T18:56:40.956Z,28.80
2022-08-05T18:59:42.014Z,28.70
2022-08-05T19:01:57.291Z,28.70
2022-08-05T19:04:25.557Z,28.60
2022-08-05T19:06:53.644Z,28.50
2022-08-05T19:09:21.284Z,28.50
2022-08-05T19:12:00.063Z,28.50
2022-08-05T19:14:52.192Z,28.40
2022-08-05T19:17:15.833Z,28.30
2022-08-05T19:19:46.953Z,28.20
2022-08-05T19:22:17.268Z,28.20
2022-08-05T19:24:56.503Z,28.10
2022-08-05T19:27:24.548Z,28.10
2022-08-05T19:29:57.724Z,28.00
2022-08-05T19:32:26.273Z,28.00
2022-08-05T19:34:55.805Z,28.00
2022-08-05T19:37:29.939Z,27.90
2022-08-05T19:40:15.044Z,27.90
2022-08-05T19:42:41.939Z,27.80
2022-08-05T19:45:28.597Z,27.80
2022-08-05T19:47:59.898Z,27.70
2022-08-05T19:50:31.237Z,27.70
2022-08-05T19:52:58.850Z,27.60
2022-08-05T19:56:14.916Z,27.70
2022-08-05T19:58:28.899Z,27.60
2022-08-05T20:00:56.712Z,27.60
2022-08-05T20:03:25.364Z,27.50
2022-08-05T20:05:56.439Z,27.40
2022-08-05T20:08:24.456Z,27.50
2022-08-05T20:10:52.258Z,27.40
2022-08-05T20:13:30.257Z,27.40
2022-08-05T20:16:06.100Z,27.30
2022-08-05T20:18:36.201Z,27.20
2022-08-05T20:21:04.775Z,27.30
2022-08-05T20:23:40.306Z,27.20
2022-08-05T20:26:17.765Z,27.10
2022-08-05T20:28:45.374Z,27.10
2022-08-05T20:31:12.038Z,27.10
2022-08-05T20:33:38.633Z,27.20
2022-08-05T20:36:10.117Z,27.20
2022-08-05T20:38:38.057Z,27.10
2022-08-05T20:41:08.102Z,27.10
2022-08-05T20:43:58.883Z,27.10
2022-08-05T20:46:25.070Z,27.00
2022-08-05T20:48:52.344Z,27.10
2022-08-05T20:51:19.033Z,27.00
2022-08-05T20:53:56.684Z,27.00
2022-08-05T20:56:28.206Z,27.00
2022-08-05T20:58:56.844Z,27.00
2022-08-05T21:01:38.567Z,26.90
2022-08-05T21:04:07.253Z,27.00
2022-08-05T21:06:37.166Z,27.00
2022-08-05T21:09:07.163Z,26.90
2022-08-05T21:12:10.798Z,26.90
2022-08-05T21:14:20.494Z,26.80
2022-08-05T21:16:53.236Z,26.90
2022-08-05T21:19:20.200Z,26.90
2022-08-05T21:21:50.655Z,26.90
2022-08-05T21:24:19.649Z,26.80
2022-08-05T21:26:56.108Z,26.80
2022-08-05T21:29:26.425Z,26.80
2022-08-05T21:31:53.559Z,26.80
2022-08-05T21:34:20.430Z,26.70
2022-08-05T21:36:48.943Z,26.70
2022-08-05T21:39:16.957Z,26.70
2022-08-05T21:41:52.397Z,26.70
2022-08-05T21:44:26.783Z,26.70
2022-08-05T21:46:53.889Z,26.70
2022-08-05T21:49:56.528Z,26.70
2022-08-05T21:52:21.927Z,26.60
2022-08-05T21:54:55.406Z,26.60
2022-08-05T21:57:31.450Z,26.70
2022-08-05T22:00:06.346Z,26.60
2022-08-05T22:02:33.787Z,26.60
2022-08-05T22:05:00.546Z,26.50
2022-08-05T22:07:40.352Z,26.60
2022-08-05T22:10:15.719Z,26.60
2022-08-05T22:12:45.131Z,26.50
2022-08-05T22:16:01.807Z,26.50
2022-08-05T22:18:04.512Z,26.50
2022-08-05T22:20:31.214Z,26.50
2022-08-05T22:23:21.305Z,26.40
2022-08-05T22:26:11.047Z,26.40
2022-08-05T22:28:38.500Z,26.40
2022-08-05T22:31:05.954Z,26.40
2022-08-05T22:33:57.080Z,26.40
2022-08-05T22:36:19.586Z,26.40
2022-08-05T22:38:51.209Z,26.30
2022-08-05T22:41:26.378Z,26.40
2022-08-05T22:44:05.993Z,26.30
2022-08-05T22:46:32.596Z,26.30
2022-08-05T22:48:59.349Z,26.30
2022-08-05T22:52:03.037Z,26.30
2022-08-05T22:54:12.900Z,26.30
2022-08-05T22:56:40.727Z,26.30
2022-08-05T22:59:45.400Z,26.20
2022-08-05T23:02:05.597Z,26.30
2022-08-05T23:04:34.819Z,26.30
2022-08-05T23:07:01.595Z,26.20
2022-08-05T23:09:58.335Z,26.20
2022-08-05T23:12:17.821Z,26.20
2022-08-05T23:14:44.761Z,26.20
2022-08-05T23:17:24.490Z,26.20
2022-08-05T23:20:01.099Z,26.20
2022-08-05T23:22:29.350Z,26.20
2022-08-05T23:24:57.543Z,26.20
2022-08-05T23:27:24.400Z,26.10
2022-08-05T23:29:58.154Z,26.20
2022-08-05T23:32:25.971Z,26.20
2022-08-05T23:34:53.891Z,26.20
2022-08-05T23:37:20.543Z,26.20
2022-08-05T23:39:54.177Z,26.10
2022-08-05T23:42:23.436Z,26.10
2022-08-05T23:44:55.722Z,26.10
2022-08-05T23:47:22.458Z,26.10
2022-08-05T23:49:52.317Z,26.20
2022-08-05T23:52:26.697Z,26.20
2022-08-05T23:54:55.512Z,26.10
2022-08-05T23:57:22.735Z,26.10
